sensor_id;sensor_type;location;lat;lon;timestamp;pressure;altitude;pressure_sealevel;temperature;humidity
6530;BME280;3298;42.688;23.366;2022-09-20T00:02:23;51798.97;;;-145.06;64.65
6530;BME280;3298;42.688;23.366;2022-09-20T00:04:49;51831.72;;;-145.06;65.31
6530;BME280;3298;42.688;23.366;2022-09-20T00:07:17;51813.28;;;-145.06;65.24
6530;BME280;3298;42.688;23.366;2022-09-20T00:09:44;51817.38;;;-145.06;65.68
6530;BME280;3298;42.688;23.366;2022-09-20T00:12:11;51827.63;;;-145.06;65.86
6530;BME280;3298;42.688;23.366;2022-09-20T00:14:38;51827.63;;;-145.06;65.67
6530;BME280;3298;42.688;23.366;2022-09-20T00:17:04;51856.28;;;-145.06;65.80
6530;BME280;3298;42.688;23.366;2022-09-20T00:19:31;51794.88;;;-145.06;66.16
6530;BME280;3298;42.688;23.366;2022-09-20T00:21:58;51848.09;;;-145.06;66.45
6530;BME280;3298;42.688;23.366;2022-09-20T00:24:26;51829.66;;;-145.06;66.56
6530;BME280;3298;42.688;23.366;2022-09-20T00:26:53;51813.28;;;-145.06;66.72
6530;BME280;3298;42.688;23.366;2022-09-20T00:29:20;51807.16;;;-145.06;67.22
6530;BME280;3298;42.688;23.366;2022-09-20T00:31:47;51811.25;;;-145.06;66.97
6530;BME280;3298;42.688;23.366;2022-09-20T00:34:13;51803.06;;;-145.06;66.71
6530;BME280;3298;42.688;23.366;2022-09-20T00:36:57;51811.25;;;-145.06;66.90
6530;BME280;3298;42.688;23.366;2022-09-20T00:39:26;51790.78;;;-145.06;66.61
6530;BME280;3298;42.688;23.366;2022-09-20T00:41:52;51792.81;;;-145.06;67.23
6530;BME280;3298;42.688;23.366;2022-09-20T00:44:39;51839.91;;;-145.06;67.42
6530;BME280;3298;42.688;23.366;2022-09-20T00:47:13;51798.97;;;-145.06;67.66
6530;BME280;3298;42.688;23.366;2022-09-20T00:49:41;51803.06;;;-145.06;67.98
6530;BME280;3298;42.688;23.366;2022-09-20T00:52:08;51790.78;;;-145.06;68.02
6530;BME280;3298;42.688;23.366;2022-09-20T00:54:37;51786.69;;;-145.06;68.03
6530;BME280;3298;42.688;23.366;2022-09-20T00:57:04;51831.72;;;-145.06;68.50
6530;BME280;3298;42.688;23.366;2022-09-20T00:59:33;51794.88;;;-145.06;67.87
6530;BME280;3298;42.688;23.366;2022-09-20T01:02:03;51819.44;;;-145.06;67.80
6530;BME280;3298;42.688;23.366;2022-09-20T01:04:34;51811.25;;;-145.06;67.33
6530;BME280;3298;42.688;23.366;2022-09-20T01:07:05;51798.97;;;-145.06;67.10
6530;BME280;3298;42.688;23.366;2022-09-20T01:09:33;51801.00;;;-145.06;67.31
6530;BME280;3298;42.688;23.366;2022-09-20T01:12:05;51809.19;;;-145.06;66.81
6530;BME280;3298;42.688;23.366;2022-09-20T01:14:35;51809.19;;;-145.06;66.18
6530;BME280;3298;42.688;23.366;2022-09-20T01:17:03;51794.88;;;-145.06;66.38
6530;BME280;3298;42.688;23.366;2022-09-20T01:19:36;51821.47;;;-145.06;65.94
6530;BME280;3298;42.688;23.366;2022-09-20T01:22:12;51803.06;;;-145.06;65.81
6530;BME280;3298;42.688;23.366;2022-09-20T01:24:47;51796.91;;;-145.06;66.80
6530;BME280;3298;42.688;23.366;2022-09-20T01:27:21;51801.00;;;-145.06;66.69
6530;BME280;3298;42.688;23.366;2022-09-20T01:30:01;51831.72;;;-145.06;66.04
6530;BME280;3298;42.688;23.366;2022-09-20T01:32:35;51815.34;;;-145.06;65.98
6530;BME280;3298;42.688;23.366;2022-09-20T01:35:06;51782.59;;;-145.06;66.11
6530;BME280;3298;42.688;23.366;2022-09-20T01:37:40;51809.19;;;-145.06;66.13
6530;BME280;3298;42.688;23.366;2022-09-20T01:40:17;51798.97;;;-145.06;66.69
6530;BME280;3298;42.688;23.366;2022-09-20T01:42:53;51798.97;;;-145.06;67.31
6530;BME280;3298;42.688;23.366;2022-09-20T01:45:27;51803.06;;;-145.06;67.01
6530;BME280;3298;42.688;23.366;2022-09-20T01:48:03;51788.72;;;-145.06;67.38
6530;BME280;3298;42.688;23.366;2022-09-20T01:50:35;51823.53;;;-145.06;68.03
6530;BME280;3298;42.688;23.366;2022-09-20T01:53:47;51790.78;;;-145.06;68.13
6530;BME280;3298;42.688;23.366;2022-09-20T01:56:47;51815.34;;;-145.06;68.89
6530;BME280;3298;42.688;23.366;2022-09-20T01:59:32;51790.78;;;-145.06;69.11
6530;BME280;3298;42.688;23.366;2022-09-20T02:02:13;51823.53;;;-145.06;69.69
6530;BME280;3298;42.688;23.366;2022-09-20T02:04:58;51786.69;;;-145.06;69.78
6530;BME280;3298;42.688;23.366;2022-09-20T02:07:55;51778.50;;;-145.06;69.52
6530;BME280;3298;42.688;23.366;2022-09-20T02:10:52;51794.88;;;-145.06;71.59
6530;BME280;3298;42.688;23.366;2022-09-20T02:13:28;51788.72;;;-145.06;72.51
6530;BME280;3298;42.688;23.366;2022-09-20T02:16:14;51811.25;;;-145.06;72.31
6530;BME280;3298;42.688;23.366;2022-09-20T02:19:04;51790.78;;;-145.06;73.61
6530;BME280;3298;42.688;23.366;2022-09-20T02:21:37;51803.06;;;-145.06;73.75
6530;BME280;3298;42.688;23.366;2022-09-20T02:24:14;51794.88;;;-145.06;73.44
6530;BME280;3298;42.688;23.366;2022-09-20T02:26:56;51798.97;;;-145.06;73.71
6530;BME280;3298;42.688;23.366;2022-09-20T02:29:38;51798.97;;;-145.06;74.06
6530;BME280;3298;42.688;23.366;2022-09-20T02:32:28;51805.09;;;-145.06;73.85
6530;BME280;3298;42.688;23.366;2022-09-20T02:35:18;51790.78;;;-145.06;73.70
6530;BME280;3298;42.688;23.366;2022-09-20T02:38:09;51811.25;;;-145.06;72.27
6530;BME280;3298;42.688;23.366;2022-09-20T02:40:59;51815.34;;;-145.06;71.39
6530;BME280;3298;42.688;23.366;2022-09-20T02:43:35;51807.16;;;-145.06;70.75
6530;BME280;3298;42.688;23.366;2022-09-20T02:46:09;51823.53;;;-145.06;70.30
6530;BME280;3298;42.688;23.366;2022-09-20T02:48:46;51796.91;;;-145.06;69.72
6530;BME280;3298;42.688;23.366;2022-09-20T02:51:20;51801.00;;;-145.06;70.35
6530;BME280;3298;42.688;23.366;2022-09-20T02:53:54;51803.06;;;-145.06;71.91
6530;BME280;3298;42.688;23.366;2022-09-20T02:56:28;51798.97;;;-145.06;72.47
6530;BME280;3298;42.688;23.366;2022-09-20T02:59:02;51807.16;;;-145.06;72.26
6530;BME280;3298;42.688;23.366;2022-09-20T03:01:52;51792.81;;;-145.06;73.00
6530;BME280;3298;42.688;23.366;2022-09-20T03:04:33;51776.44;;;-145.06;73.41
6530;BME280;3298;42.688;23.366;2022-09-20T03:07:08;51782.59;;;-145.06;73.87
6530;BME280;3298;42.688;23.366;2022-09-20T03:09:45;51831.72;;;-145.06;75.03
6530;BME280;3298;42.688;23.366;2022-09-20T03:12:22;51803.06;;;-145.06;75.81
6530;BME280;3298;42.688;23.366;2022-09-20T03:14:59;51786.69;;;-145.06;76.92
6530;BME280;3298;42.688;23.366;2022-09-20T03:17:47;51778.50;;;-145.06;77.16
6530;BME280;3298;42.688;23.366;2022-09-20T03:20:22;51784.63;;;-145.06;77.17
6530;BME280;3298;42.688;23.366;2022-09-20T03:22:57;51801.00;;;-145.06;77.45
6530;BME280;3298;42.688;23.366;2022-09-20T03:25:50;51786.69;;;-145.06;76.31
6530;BME280;3298;42.688;23.366;2022-09-20T03:28:35;51788.72;;;-145.06;76.69
6530;BME280;3298;42.688;23.366;2022-09-20T03:31:15;51778.50;;;-145.06;76.49
6530;BME280;3298;42.688;23.366;2022-09-20T03:33:50;51778.50;;;-145.06;76.57
6530;BME280;3298;42.688;23.366;2022-09-20T03:36:40;51764.16;;;-145.06;75.81
6530;BME280;3298;42.688;23.366;2022-09-20T03:39:27;51801.00;;;-145.06;76.09
6530;BME280;3298;42.688;23.366;2022-09-20T03:42:12;51790.78;;;-145.06;75.83
6530;BME280;3298;42.688;23.366;2022-09-20T03:45:26;51807.16;;;-145.06;75.94
6530;BME280;3298;42.688;23.366;2022-09-20T03:48:15;51815.34;;;-145.06;75.52
6530;BME280;3298;42.688;23.366;2022-09-20T03:50:50;51782.59;;;-145.06;75.51
6530;BME280;3298;42.688;23.366;2022-09-20T03:53:57;51784.63;;;-145.06;75.42
6530;BME280;3298;42.688;23.366;2022-09-20T03:56:46;51782.59;;;-145.06;74.91
6530;BME280;3298;42.688;23.366;2022-09-20T03:59:38;51809.19;;;-145.06;75.42
6530;BME280;3298;42.688;23.366;2022-09-20T04:02:27;51778.50;;;-145.06;74.89
6530;BME280;3298;42.688;23.366;2022-09-20T04:05:05;51798.97;;;-145.06;74.45
6530;BME280;3298;42.688;23.366;2022-09-20T04:07:45;51774.41;;;-145.06;73.60
6530;BME280;3298;42.688;23.366;2022-09-20T04:10:26;51794.88;;;-145.06;73.50
6530;BME280;3298;42.688;23.366;2022-09-20T04:13:06;51788.72;;;-145.06;73.65
6530;BME280;3298;42.688;23.366;2022-09-20T04:15:44;51807.16;;;-145.06;73.27
6530;BME280;3298;42.688;23.366;2022-09-20T04:18:22;51770.31;;;-145.06;73.23
6530;BME280;3298;42.688;23.366;2022-09-20T04:20:57;51798.97;;;-145.06;73.15
6530;BME280;3298;42.688;23.366;2022-09-20T04:23:35;51821.47;;;-145.06;72.65
6530;BME280;3298;42.688;23.366;2022-09-20T04:26:05;51807.16;;;-145.06;72.34
6530;BME280;3298;42.688;23.366;2022-09-20T04:28:38;51815.34;;;-145.06;72.87
6530;BME280;3298;42.688;23.366;2022-09-20T04:31:19;51778.50;;;-145.06;72.18
6530;BME280;3298;42.688;23.366;2022-09-20T04:33:50;51784.63;;;-145.06;72.17
6530;BME280;3298;42.688;23.366;2022-09-20T04:39:16;51758.03;;;-145.06;72.05
6530;BME280;3298;42.688;23.366;2022-09-20T04:42:08;51782.59;;;-145.06;71.70
6530;BME280;3298;42.688;23.366;2022-09-20T04:51:10;51778.50;;;-145.06;72.48
6530;BME280;3298;42.688;23.366;2022-09-20T04:54:35;51772.34;;;-145.06;72.73
6530;BME280;3298;42.688;23.366;2022-09-20T04:57:34;51805.09;;;-145.06;73.09
6530;BME280;3298;42.688;23.366;2022-09-20T05:00:07;51778.50;;;-145.06;73.47
6530;BME280;3298;42.688;23.366;2022-09-20T05:03:01;51792.81;;;-145.06;73.08
6530;BME280;3298;42.688;23.366;2022-09-20T05:06:05;51796.91;;;-145.06;72.79
6530;BME280;3298;42.688;23.366;2022-09-20T05:09:04;51801.00;;;-145.06;73.07
6530;BME280;3298;42.688;23.366;2022-09-20T05:11:51;51782.59;;;-145.06;72.44
6530;BME280;3298;42.688;23.366;2022-09-20T05:14:30;51780.53;;;-145.06;72.10
6530;BME280;3298;42.688;23.366;2022-09-20T05:17:19;51880.81;;;-145.06;72.25
6530;BME280;3298;42.688;23.366;2022-09-20T05:20:06;51780.53;;;-145.06;72.31
6530;BME280;3298;42.688;23.366;2022-09-20T05:23:01;51794.88;;;-145.06;72.03
6530;BME280;3298;42.688;23.366;2022-09-20T05:25:41;51784.63;;;-145.06;72.37
6530;BME280;3298;42.688;23.366;2022-09-20T05:28:17;51786.69;;;-145.06;72.00
6530;BME280;3298;42.688;23.366;2022-09-20T05:30:49;51782.59;;;-145.06;72.44
6530;BME280;3298;42.688;23.366;2022-09-20T05:33:23;51809.19;;;-145.06;72.35
6530;BME280;3298;42.688;23.366;2022-09-20T05:36:01;51784.63;;;-145.06;72.95
6530;BME280;3298;42.688;23.366;2022-09-20T05:38:38;51782.59;;;-145.06;72.10
6530;BME280;3298;42.688;23.366;2022-09-20T05:41:12;51813.28;;;-145.06;72.42
6530;BME280;3298;42.688;23.366;2022-09-20T05:43:50;51790.78;;;-145.06;72.61
6530;BME280;3298;42.688;23.366;2022-09-20T05:46:31;51786.69;;;-145.06;73.52
6530;BME280;3298;42.688;23.366;2022-09-20T05:49:06;51790.78;;;-145.06;73.12
6530;BME280;3298;42.688;23.366;2022-09-20T05:51:48;51782.59;;;-145.06;75.03
6530;BME280;3298;42.688;23.366;2022-09-20T05:54:27;51801.00;;;-145.06;72.85
6530;BME280;3298;42.688;23.366;2022-09-20T05:57:12;51786.69;;;-145.06;71.98
6530;BME280;3298;42.688;23.366;2022-09-20T05:59:51;51768.25;;;-145.06;70.11
6530;BME280;3298;42.688;23.366;2022-09-20T06:02:31;51798.97;;;-145.06;71.74
6530;BME280;3298;42.688;23.366;2022-09-20T06:05:09;51790.78;;;-145.06;69.58
6530;BME280;3298;42.688;23.366;2022-09-20T06:08:03;51805.09;;;-145.06;68.25
6530;BME280;3298;42.688;23.366;2022-09-20T06:10:49;51788.72;;;-145.06;68.26
6530;BME280;3298;42.688;23.366;2022-09-20T06:13:41;51794.88;;;-145.06;70.18
6530;BME280;3298;42.688;23.366;2022-09-20T06:16:16;51801.00;;;-145.06;67.95
6530;BME280;3298;42.688;23.366;2022-09-20T06:18:54;51782.59;;;-145.06;66.64
6530;BME280;3298;42.688;23.366;2022-09-20T06:21:34;51813.28;;;-145.06;65.82
6530;BME280;3298;42.688;23.366;2022-09-20T06:24:17;51786.69;;;-145.06;67.20
6530;BME280;3298;42.688;23.366;2022-09-20T06:26:50;51788.72;;;-145.06;66.33
6530;BME280;3298;42.688;23.366;2022-09-20T06:29:25;51784.63;;;-145.06;65.88
6530;BME280;3298;42.688;23.366;2022-09-20T06:31:53;51798.97;;;-145.06;65.55
6530;BME280;3298;42.688;23.366;2022-09-20T06:34:19;51794.88;;;-145.06;66.12
6530;BME280;3298;42.688;23.366;2022-09-20T06:36:50;51778.50;;;-145.06;66.37
6530;BME280;3298;42.688;23.366;2022-09-20T06:39:40;51807.16;;;-145.06;63.88
6530;BME280;3298;42.688;23.366;2022-09-20T06:42:26;51801.00;;;-145.06;64.44
6530;BME280;3298;42.688;23.366;2022-09-20T06:44:54;51794.88;;;-145.06;63.43
6530;BME280;3298;42.688;23.366;2022-09-20T06:47:21;51772.34;;;-145.06;65.49
6530;BME280;3298;42.688;23.366;2022-09-20T06:49:48;51778.50;;;-145.06;63.74
6530;BME280;3298;42.688;23.366;2022-09-20T06:52:17;51798.97;;;-145.06;63.35
6530;BME280;3298;42.688;23.366;2022-09-20T06:54:45;51782.59;;;-145.06;63.42
6530;BME280;3298;42.688;23.366;2022-09-20T06:57:17;51803.06;;;-145.06;64.97
6530;BME280;3298;42.688;23.366;2022-09-20T06:59:45;51803.06;;;-145.06;66.38
6530;BME280;3298;42.688;23.366;2022-09-20T07:02:12;51803.06;;;-145.06;61.91
6530;BME280;3298;42.688;23.366;2022-09-20T07:04:39;51794.88;;;-145.06;62.83
6530;BME280;3298;42.688;23.366;2022-09-20T07:07:06;51790.78;;;-145.06;63.52
6530;BME280;3298;42.688;23.366;2022-09-20T07:09:35;51815.34;;;-145.06;62.78
6530;BME280;3298;42.688;23.366;2022-09-20T07:12:02;51786.69;;;-145.06;61.29
6530;BME280;3298;42.688;23.366;2022-09-20T07:14:29;51803.06;;;-145.06;61.57
6530;BME280;3298;42.688;23.366;2022-09-20T07:16:56;51815.34;;;-145.06;61.28
6530;BME280;3298;42.688;23.366;2022-09-20T07:19:23;51815.34;;;-145.06;61.17
6530;BME280;3298;42.688;23.366;2022-09-20T07:21:49;51803.06;;;-145.06;60.74
6530;BME280;3298;42.688;23.366;2022-09-20T07:24:16;51766.22;;;-145.06;60.13
6530;BME280;3298;42.688;23.366;2022-09-20T07:26:55;51807.16;;;-145.06;59.56
6530;BME280;3298;42.688;23.366;2022-09-20T07:29:23;51798.97;;;-145.06;59.39
6530;BME280;3298;42.688;23.366;2022-09-20T07:31:50;51794.88;;;-145.06;61.00
6530;BME280;3298;42.688;23.366;2022-09-20T07:34:17;51819.44;;;-145.06;60.40
6530;BME280;3298;42.688;23.366;2022-09-20T07:36:45;51819.44;;;-145.06;60.00
6530;BME280;3298;42.688;23.366;2022-09-20T07:39:11;51801.00;;;-145.06;59.08
6530;BME280;3298;42.688;23.366;2022-09-20T07:41:38;51807.16;;;-145.06;59.09
6530;BME280;3298;42.688;23.366;2022-09-20T07:44:06;51803.06;;;-145.06;58.71
6530;BME280;3298;42.688;23.366;2022-09-20T07:46:46;51770.31;;;-145.06;58.62
6530;BME280;3298;42.688;23.366;2022-09-20T07:49:13;51809.19;;;-145.06;57.60
6530;BME280;3298;42.688;23.366;2022-09-20T07:51:40;51805.09;;;-145.06;57.78
6530;BME280;3298;42.688;23.366;2022-09-20T07:54:07;51815.34;;;-145.06;58.44
6530;BME280;3298;42.688;23.366;2022-09-20T07:56:33;51809.19;;;-145.06;55.90
6530;BME280;3298;42.688;23.366;2022-09-20T07:59:01;51807.16;;;-145.06;55.46
6530;BME280;3298;42.688;23.366;2022-09-20T08:01:29;51805.09;;;-145.06;56.81
6530;BME280;3298;42.688;23.366;2022-09-20T08:03:55;51807.16;;;-145.06;56.45
6530;BME280;3298;42.688;23.366;2022-09-20T08:06:22;51811.25;;;-145.06;56.35
6530;BME280;3298;42.688;23.366;2022-09-20T08:08:49;51807.16;;;-145.06;55.27
6530;BME280;3298;42.688;23.366;2022-09-20T08:11:18;51807.16;;;-145.06;54.02
6530;BME280;3298;42.688;23.366;2022-09-20T08:13:46;51815.34;;;-145.06;53.63
6530;BME280;3298;42.688;23.366;2022-09-20T08:16:14;51807.16;;;-145.06;54.02
6530;BME280;3298;42.688;23.366;2022-09-20T08:18:46;51817.38;;;-145.06;53.59
6530;BME280;3298;42.688;23.366;2022-09-20T08:21:13;51811.25;;;-145.06;51.83
6530;BME280;3298;42.688;23.366;2022-09-20T08:23:41;51807.16;;;-145.06;51.85
6530;BME280;3298;42.688;23.366;2022-09-20T08:26:11;51794.88;;;-145.06;49.92
6530;BME280;3298;42.688;23.366;2022-09-20T08:28:38;51794.88;;;-145.06;50.00
6530;BME280;3298;42.688;23.366;2022-09-20T08:31:07;51794.88;;;-145.06;49.01
6530;BME280;3298;42.688;23.366;2022-09-20T08:33:34;51805.09;;;-145.06;46.85
6530;BME280;3298;42.688;23.366;2022-09-20T08:36:04;51807.16;;;-145.06;46.68
6530;BME280;3298;42.688;23.366;2022-09-20T08:38:31;51803.06;;;-145.06;47.07
6530;BME280;3298;42.688;23.366;2022-09-20T08:41:02;51809.19;;;-145.06;46.55
6530;BME280;3298;42.688;23.366;2022-09-20T08:43:34;51813.28;;;-145.06;45.65
6530;BME280;3298;42.688;23.366;2022-09-20T08:46:04;51788.72;;;-145.06;44.85
6530;BME280;3298;42.688;23.366;2022-09-20T08:48:33;51809.19;;;-145.06;46.13
6530;BME280;3298;42.688;23.366;2022-09-20T08:51:01;51813.28;;;-145.06;46.16
6530;BME280;3298;42.688;23.366;2022-09-20T08:53:29;51825.56;;;-145.06;46.00
6530;BME280;3298;42.688;23.366;2022-09-20T08:55:56;51831.72;;;-145.06;45.64
6530;BME280;3298;42.688;23.366;2022-09-20T08:58:24;51846.03;;;-145.06;44.84
6530;BME280;3298;42.688;23.366;2022-09-20T09:00:52;51811.25;;;-145.06;45.58
6530;BME280;3298;42.688;23.366;2022-09-20T09:03:20;51819.44;;;-145.06;45.68
6530;BME280;3298;42.688;23.366;2022-09-20T09:05:48;51811.25;;;-145.06;45.31
6530;BME280;3298;42.688;23.366;2022-09-20T09:08:17;51803.06;;;-145.06;44.43
6530;BME280;3298;42.688;23.366;2022-09-20T09:10:51;51809.19;;;-145.06;42.84
6530;BME280;3298;42.688;23.366;2022-09-20T09:13:24;51805.09;;;-145.06;42.91
6530;BME280;3298;42.688;23.366;2022-09-20T09:15:56;51815.34;;;-145.06;42.71
6530;BME280;3298;42.688;23.366;2022-09-20T09:18:32;51825.56;;;-145.06;43.45
6530;BME280;3298;42.688;23.366;2022-09-20T09:21:00;51817.38;;;-145.06;44.82
6530;BME280;3298;42.688;23.366;2022-09-20T09:23:30;51803.06;;;-145.06;44.88
6530;BME280;3298;42.688;23.366;2022-09-20T09:26:04;51827.63;;;-145.06;43.71
6530;BME280;3298;42.688;23.366;2022-09-20T09:28:31;51835.81;;;-145.06;43.33
6530;BME280;3298;42.688;23.366;2022-09-20T09:31:12;51817.38;;;-145.06;42.94
6530;BME280;3298;42.688;23.366;2022-09-20T09:33:42;51821.47;;;-145.06;42.32
6530;BME280;3298;42.688;23.366;2022-09-20T09:36:13;51815.34;;;-145.06;41.52
6530;BME280;3298;42.688;23.366;2022-09-20T09:38:42;51794.88;;;-145.06;39.63
6530;BME280;3298;42.688;23.366;2022-09-20T09:41:22;51831.72;;;-145.06;39.49
6530;BME280;3298;42.688;23.366;2022-09-20T09:43:58;51839.91;;;-145.06;39.06
6530;BME280;3298;42.688;23.366;2022-09-20T09:46:29;51819.44;;;-145.06;38.58
6530;BME280;3298;42.688;23.366;2022-09-20T09:49:06;51844.00;;;-145.06;38.98
6530;BME280;3298;42.688;23.366;2022-09-20T09:51:34;51831.72;;;-145.06;39.83
6530;BME280;3298;42.688;23.366;2022-09-20T09:54:02;51837.84;;;-145.06;40.36
6530;BME280;3298;42.688;23.366;2022-09-20T09:56:43;51803.06;;;-145.06;41.48
6530;BME280;3298;42.688;23.366;2022-09-20T09:59:36;51839.91;;;-145.06;40.96
6530;BME280;3298;42.688;23.366;2022-09-20T10:02:22;51831.72;;;-145.06;41.19
6530;BME280;3298;42.688;23.366;2022-09-20T10:04:58;51811.25;;;-145.06;42.20
6530;BME280;3298;42.688;23.366;2022-09-20T10:07:33;51819.44;;;-145.06;42.34
6530;BME280;3298;42.688;23.366;2022-09-20T10:10:10;51829.66;;;-145.06;42.13
6530;BME280;3298;42.688;23.366;2022-09-20T10:12:52;51798.97;;;-145.06;42.30
6530;BME280;3298;42.688;23.366;2022-09-20T10:15:29;51837.84;;;-145.06;41.36
6530;BME280;3298;42.688;23.366;2022-09-20T10:18:21;51827.63;;;-145.06;40.64
6530;BME280;3298;42.688;23.366;2022-09-20T10:21:07;51807.16;;;-145.06;41.13
6530;BME280;3298;42.688;23.366;2022-09-20T10:23:51;51827.63;;;-145.06;41.23
6530;BME280;3298;42.688;23.366;2022-09-20T10:26:35;51829.66;;;-145.06;41.64
6530;BME280;3298;42.688;23.366;2022-09-20T10:29:14;51819.44;;;-145.06;41.52
6530;BME280;3298;42.688;23.366;2022-09-20T10:31:58;51801.00;;;-145.06;41.25
6530;BME280;3298;42.688;23.366;2022-09-20T10:34:46;51807.16;;;-145.06;41.24
6530;BME280;3298;42.688;23.366;2022-09-20T10:37:20;51819.44;;;-145.06;40.19
6530;BME280;3298;42.688;23.366;2022-09-20T10:39:57;51819.44;;;-145.06;38.60
6530;BME280;3298;42.688;23.366;2022-09-20T10:42:34;51833.75;;;-145.06;38.94
6530;BME280;3298;42.688;23.366;2022-09-20T10:45:29;51821.47;;;-145.06;40.33
6530;BME280;3298;42.688;23.366;2022-09-20T10:48:03;51831.72;;;-145.06;40.59
6530;BME280;3298;42.688;23.366;2022-09-20T10:50:36;51796.91;;;-145.06;40.45
6530;BME280;3298;42.688;23.366;2022-09-20T10:53:21;51854.22;;;-145.06;39.00
6530;BME280;3298;42.688;23.366;2022-09-20T10:56:02;51684.34;;;-145.06;39.89
6530;BME280;3298;42.688;23.366;2022-09-20T10:59:03;51866.50;;;-145.06;37.94
6530;BME280;3298;42.688;23.366;2022-09-20T11:01:41;51651.59;;;-145.06;34.78
6530;BME280;3298;42.688;23.366;2022-09-20T11:04:27;51886.97;;;-145.06;26.19
6530;BME280;3298;42.688;23.366;2022-09-20T11:07:08;52157.16;;;-145.06;23.74
6530;BME280;3298;42.688;23.366;2022-09-20T11:09:40;52253.38;;;-145.06;22.81
6530;BME280;3298;42.688;23.366;2022-09-20T11:12:12;52359.81;;;-145.06;22.37
6530;BME280;3298;42.688;23.366;2022-09-20T11:14:47;52290.22;;;-145.06;22.28
6530;BME280;3298;42.688;23.366;2022-09-20T11:17:21;52056.84;;;-145.06;24.85
6530;BME280;3298;42.688;23.366;2022-09-20T11:19:55;51977.03;;;-145.06;27.93
6530;BME280;3298;42.688;23.366;2022-09-20T11:22:27;51915.63;;;-145.06;29.93
6530;BME280;3298;42.688;23.366;2022-09-20T11:25:02;51884.91;;;-145.06;30.92
6530;BME280;3298;42.688;23.366;2022-09-20T11:27:36;51901.28;;;-145.06;31.47
6530;BME280;3298;42.688;23.366;2022-09-20T11:30:10;52024.09;;;-145.06;31.79
6530;BME280;3298;42.688;23.366;2022-09-20T11:32:46;51893.09;;;-145.06;32.31
6530;BME280;3298;42.688;23.366;2022-09-20T11:35:22;51913.56;;;-145.06;32.38
6530;BME280;3298;42.688;23.366;2022-09-20T11:37:56;51884.91;;;-145.06;32.47
6530;BME280;3298;42.688;23.366;2022-09-20T11:40:30;51884.91;;;-145.06;32.61
6530;BME280;3298;42.688;23.366;2022-09-20T11:43:00;51880.81;;;-145.06;33.32
6530;BME280;3298;42.688;23.366;2022-09-20T11:45:28;51891.06;;;-145.06;33.22
6530;BME280;3298;42.688;23.366;2022-09-20T11:48:02;51889.00;;;-145.06;33.55
6530;BME280;3298;42.688;23.366;2022-09-20T11:50:45;51889.00;;;-145.06;33.56
6530;BME280;3298;42.688;23.366;2022-09-20T11:53:22;51884.91;;;-145.06;33.77
6530;BME280;3298;42.688;23.366;2022-09-20T11:55:56;51876.75;;;-145.06;33.56
6530;BME280;3298;42.688;23.366;2022-09-20T11:58:24;51876.75;;;-145.06;32.88
6530;BME280;3298;42.688;23.366;2022-09-20T12:00:53;51876.75;;;-145.06;33.16
6530;BME280;3298;42.688;23.366;2022-09-20T12:03:28;51921.75;;;-145.06;33.72
6530;BME280;3298;42.688;23.366;2022-09-20T12:05:59;51874.69;;;-145.06;35.79
6530;BME280;3298;42.688;23.366;2022-09-20T12:08:28;51874.69;;;-145.06;35.59
6530;BME280;3298;42.688;23.366;2022-09-20T12:10:59;51884.91;;;-145.06;34.81
6530;BME280;3298;42.688;23.366;2022-09-20T12:13:30;51878.78;;;-145.06;36.08
6530;BME280;3298;42.688;23.366;2022-09-20T12:16:00;51874.69;;;-145.06;35.39
6530;BME280;3298;42.688;23.366;2022-09-20T12:19:03;51862.41;;;-145.06;37.30
6530;BME280;3298;42.688;23.366;2022-09-20T12:24:37;51899.25;;;-145.06;34.79
6530;BME280;3298;42.688;23.366;2022-09-20T12:27:20;51878.78;;;-145.06;34.29
6530;BME280;3298;42.688;23.366;2022-09-20T12:30:15;51876.75;;;-145.06;35.01
6530;BME280;3298;42.688;23.366;2022-09-20T12:33:00;51897.19;;;-145.06;34.43
6530;BME280;3298;42.688;23.366;2022-09-20T12:35:59;51889.00;;;-145.06;34.19
6530;BME280;3298;42.688;23.366;2022-09-20T12:38:50;51889.00;;;-145.06;34.53
6530;BME280;3298;42.688;23.366;2022-09-20T12:41:20;51901.28;;;-145.06;34.29
6530;BME280;3298;42.688;23.366;2022-09-20T12:43:57;51868.56;;;-145.06;34.54
6530;BME280;3298;42.688;23.366;2022-09-20T12:46:34;51864.47;;;-145.06;34.31
6530;BME280;3298;42.688;23.366;2022-09-20T12:49:28;51889.00;;;-145.06;33.94
6530;BME280;3298;42.688;23.366;2022-09-20T12:52:46;51862.41;;;-145.06;35.67
6530;BME280;3298;42.688;23.366;2022-09-20T12:55:33;51860.38;;;-145.06;34.80
6530;BME280;3298;42.688;23.366;2022-09-20T12:58:04;51897.19;;;-145.06;34.80
6530;BME280;3298;42.688;23.366;2022-09-20T13:00:37;51870.59;;;-145.06;35.31
6530;BME280;3298;42.688;23.366;2022-09-20T13:03:10;51870.59;;;-145.06;35.09
6530;BME280;3298;42.688;23.366;2022-09-20T13:05:39;51880.81;;;-145.06;34.63
6530;BME280;3298;42.688;23.366;2022-09-20T13:08:13;51864.47;;;-145.06;34.78
6530;BME280;3298;42.688;23.366;2022-09-20T13:10:44;51897.19;;;-145.06;34.50
6530;BME280;3298;42.688;23.366;2022-09-20T13:13:27;51872.66;;;-145.06;34.85
6530;BME280;3298;42.688;23.366;2022-09-20T13:15:57;51852.19;;;-145.06;34.32
6530;BME280;3298;42.688;23.366;2022-09-20T13:18:24;51938.13;;;-145.06;34.59
6530;BME280;3298;42.688;23.366;2022-09-20T13:20:54;51874.69;;;-145.06;34.79
6530;BME280;3298;42.688;23.366;2022-09-20T13:23:25;51880.81;;;-145.06;34.05
6530;BME280;3298;42.688;23.366;2022-09-20T13:25:54;51884.91;;;-145.06;33.86
6530;BME280;3298;42.688;23.366;2022-09-20T13:28:31;51870.59;;;-145.06;34.18
6530;BME280;3298;42.688;23.366;2022-09-20T13:31:21;51878.78;;;-145.06;34.72
6530;BME280;3298;42.688;23.366;2022-09-20T13:33:49;51876.75;;;-145.06;34.47
6530;BME280;3298;42.688;23.366;2022-09-20T13:36:21;51868.56;;;-145.06;34.55
6530;BME280;3298;42.688;23.366;2022-09-20T13:38:52;51889.00;;;-145.06;34.13
6530;BME280;3298;42.688;23.366;2022-09-20T13:41:19;51864.47;;;-145.06;34.44
6530;BME280;3298;42.688;23.366;2022-09-20T13:43:48;51858.31;;;-145.06;34.11
6530;BME280;3298;42.688;23.366;2022-09-20T13:46:21;51860.38;;;-145.06;34.24
6530;BME280;3298;42.688;23.366;2022-09-20T13:48:52;51868.56;;;-145.06;34.17
6530;BME280;3298;42.688;23.366;2022-09-20T13:51:23;51862.41;;;-145.06;34.45